Time;durP1;ratioP1;P1;durP2;ratioP2;P2;SDS_P1;SDS_P2;PMS_P1;PMS_P2;Temp;Humidity;BMP_temperature;BMP_pressure;BME280_temperature;BME280_humidity;BME280_pressure;Samples;Min_cycle;Max_cycle;Signal;HPM_P1;HPM_P2
2023/04/08 00:01:32;;;;;;;;;;;4.80;99.90;;;;;;5012962;28;20358;-38
2023/04/08 00:03:59;;;;;;;;;;;4.80;99.90;;;;;;5029377;28;20383;-38
2023/04/08 00:06:26;;;;;;;;;;;4.70;99.90;;;;;;5005544;28;20294;-38
2023/04/08 00:08:53;;;;;;;;;;;4.70;99.90;;;;;;5021756;28;19963;-39
2023/04/08 00:11:19;;;;;;;;;;;4.70;99.90;;;;;;5007034;28;20053;-38
2023/04/08 00:13:47;;;;;;;;;;;4.70;99.90;;;;;;5008645;28;20065;-38
2023/04/08 00:16:15;;;;;;;;;;;4.60;99.90;;;;;;5007170;28;20069;-38
2023/04/08 00:18:41;;;;;;;;;;;4.60;99.90;;;;;;5026382;28;20044;-38
2023/04/08 00:21:08;;;;;;;;;;;4.50;99.90;;;;;;5011192;28;20012;-38
2023/04/08 00:23:35;;;;;;;;;;;4.50;99.90;;;;;;5003591;28;19949;-37
2023/04/08 00:26:01;;;;;;;;;;;4.50;99.90;;;;;;5024714;28;20046;-38
2023/04/08 00:28:28;;;;;;;;;;;4.50;99.90;;;;;;5026721;28;19962;-38
2023/04/08 00:30:57;;;;;;;;;;;4.50;99.90;;;;;;5014049;28;20017;-38
2023/04/08 00:33:24;;;;;;;;;;;4.40;99.90;;;;;;5030396;28;20064;-37
2023/04/08 00:35:51;;;;;;;;;;;4.40;99.90;;;;;;5031634;28;19973;-38
2023/04/08 00:38:18;;;;;;;;;;;4.40;99.90;;;;;;5011415;28;19954;-38
2023/04/08 00:40:44;;;;;;;;;;;4.40;99.90;;;;;;5012318;28;20051;-37
2023/04/08 00:43:11;;;;;;;;;;;4.30;99.90;;;;;;5030693;28;19960;-37
2023/04/08 00:45:38;;;;;;;;;;;4.30;99.90;;;;;;5030957;28;20006;-38
2023/04/08 00:48:06;;;;;;;;;;;4.30;99.90;;;;;;5030904;28;19987;-37
2023/04/08 00:50:32;;;;;;;;;;;4.30;99.90;;;;;;5012722;28;20420;-38
2023/04/08 00:52:59;;;;;;;;;;;4.30;99.90;;;;;;5011212;28;20358;-37
2023/04/08 00:55:26;;;;;;;;;;;4.20;99.90;;;;;;5013327;28;19998;-37
2023/04/08 00:57:53;;;;;;;;;;;4.20;99.90;;;;;;5030769;28;19952;-39
2023/04/08 01:00:19;;;;;;;;;;;4.20;99.90;;;;;;5029460;28;19988;-37
2023/04/08 01:02:47;;;;;;;;;;;4.10;99.90;;;;;;5014290;28;20014;-38
2023/04/08 01:05:19;;;;;;;;;;;4.10;99.90;;;;;;5024291;28;19965;-38
2023/04/08 01:07:46;;;;;;;;;;;4.10;99.90;;;;;;5022933;28;19993;-36
2023/04/08 01:10:15;;;;;;;;;;;4.00;99.90;;;;;;5020560;28;20020;-37
2023/04/08 01:12:43;;;;;;;;;;;4.00;99.90;;;;;;5001573;28;19957;-37
2023/04/08 01:15:11;;;;;;;;;;;4.00;99.90;;;;;;5022109;28;20385;-37
2023/04/08 01:17:38;;;;;;;;;;;4.00;99.90;;;;;;5026316;28;19963;-37
2023/04/08 01:20:05;;;;;;;;;;;4.00;99.90;;;;;;5022894;28;20095;-37
2023/04/08 01:22:34;;;;;;;;;;;3.90;99.90;;;;;;5004302;28;20006;-37
2023/04/08 01:25:02;;;;;;;;;;;3.90;99.90;;;;;;5027394;28;20406;-37
2023/04/08 01:27:30;;;;;;;;;;;3.80;99.90;;;;;;5007279;28;20010;-37
2023/04/08 01:29:57;;;;;;;;;;;3.80;99.90;;;;;;5007214;28;20445;-38
2023/04/08 01:32:24;;;;;;;;;;;3.80;99.90;;;;;;5031854;28;20027;-37
2023/04/08 01:34:50;;;;;;;;;;;3.80;99.90;;;;;;5010186;28;20064;-37
2023/04/08 01:37:17;;;;;;;;;;;3.70;99.90;;;;;;5030825;28;20002;-37
2023/04/08 01:39:43;;;;;;;;;;;3.70;99.90;;;;;;5030487;28;20020;-37
2023/04/08 01:42:10;;;;;;;;;;;3.70;99.90;;;;;;5008757;28;20058;-37
2023/04/08 01:44:38;;;;;;;;;;;3.70;99.90;;;;;;5005143;28;20080;-37
2023/04/08 01:47:05;;;;;;;;;;;3.60;99.90;;;;;;5029620;28;19982;-37
2023/04/08 01:49:31;;;;;;;;;;;3.60;99.90;;;;;;5030673;28;20021;-38
2023/04/08 01:51:58;;;;;;;;;;;3.60;99.90;;;;;;5033568;28;20378;-38
2023/04/08 01:54:25;;;;;;;;;;;3.50;99.90;;;;;;5016357;28;20016;-37
2023/04/08 01:56:51;;;;;;;;;;;3.50;99.90;;;;;;5034623;28;20014;-37
2023/04/08 01:59:18;;;;;;;;;;;3.50;99.90;;;;;;5016169;28;20013;-38
2023/04/08 02:01:46;;;;;;;;;;;3.50;99.90;;;;;;5015902;28;19955;-39
2023/04/08 02:04:12;;;;;;;;;;;3.50;99.90;;;;;;5010901;28;19983;-38
2023/04/08 02:06:39;;;;;;;;;;;3.40;99.90;;;;;;5007890;28;20048;-36
2023/04/08 02:09:06;;;;;;;;;;;3.40;99.90;;;;;;5025709;28;20040;-37
2023/04/08 02:11:33;;;;;;;;;;;3.40;99.90;;;;;;5022798;28;19974;-37
2023/04/08 02:13:59;;;;;;;;;;;3.40;99.90;;;;;;5027294;28;19958;-37
2023/04/08 02:16:30;;;;;;;;;;;3.40;99.90;;;;;;5025257;28;20022;-37
2023/04/08 02:18:58;;;;;;;;;;;3.30;99.90;;;;;;5008783;28;20026;-37
2023/04/08 02:21:27;;;;;;;;;;;3.30;99.90;;;;;;5009743;28;19963;-38
2023/04/08 02:23:53;;;;;;;;;;;3.30;99.90;;;;;;5023379;28;20019;-38
2023/04/08 02:26:20;;;;;;;;;;;3.30;99.90;;;;;;5024751;28;20387;-37
2023/04/08 02:28:47;;;;;;;;;;;3.30;99.90;;;;;;5012891;28;19959;-37
2023/04/08 02:31:14;;;;;;;;;;;3.20;99.90;;;;;;5029586;28;19956;-37
2023/04/08 02:33:41;;;;;;;;;;;3.20;99.90;;;;;;5006600;28;20321;-38
2023/04/08 02:36:09;;;;;;;;;;;3.20;99.90;;;;;;5028663;28;19978;-37
2023/04/08 02:38:35;;;;;;;;;;;3.10;99.90;;;;;;5011028;28;20783;-38
2023/04/08 02:41:02;;;;;;;;;;;3.10;99.90;;;;;;5025945;28;19957;-37
2023/04/08 02:43:31;;;;;;;;;;;3.10;99.90;;;;;;5006496;28;20006;-38
2023/04/08 02:45:57;;;;;;;;;;;3.10;99.90;;;;;;5007867;28;20026;-39
2023/04/08 02:48:24;;;;;;;;;;;3.10;99.90;;;;;;5026328;28;20038;-38
2023/04/08 02:50:51;;;;;;;;;;;3.10;99.90;;;;;;5004692;28;19950;-38
2023/04/08 02:53:19;;;;;;;;;;;3.00;99.90;;;;;;5007183;28;20685;-38
2023/04/08 02:55:45;;;;;;;;;;;3.00;99.90;;;;;;5006322;28;19995;-38
2023/04/08 02:58:12;;;;;;;;;;;3.00;99.90;;;;;;5027753;28;20449;-38
2023/04/08 03:00:38;;;;;;;;;;;3.00;99.90;;;;;;5012393;28;20055;-38
2023/04/08 03:03:06;;;;;;;;;;;3.00;99.90;;;;;;5025005;28;19963;-38
2023/04/08 03:05:32;;;;;;;;;;;3.00;99.90;;;;;;5012674;28;20035;-37
2023/04/08 03:07:59;;;;;;;;;;;2.90;99.90;;;;;;5026675;28;20379;-37
2023/04/08 03:10:27;;;;;;;;;;;2.90;99.90;;;;;;5023406;28;21496;-37
2023/04/08 03:12:54;;;;;;;;;;;2.90;99.90;;;;;;5007265;28;19954;-37
2023/04/08 03:15:20;;;;;;;;;;;2.90;99.90;;;;;;5023579;28;19970;-37
2023/04/08 03:17:47;;;;;;;;;;;2.90;99.90;;;;;;5009834;28;19962;-38
2023/04/08 03:20:14;;;;;;;;;;;2.90;99.90;;;;;;5024959;28;20477;-38
2023/04/08 03:22:40;;;;;;;;;;;2.90;99.90;;;;;;5008557;28;20419;-39
2023/04/08 03:25:07;;;;;;;;;;;2.90;99.90;;;;;;5025535;28;19987;-39
2023/04/08 03:27:35;;;;;;;;;;;2.80;99.90;;;;;;5006800;28;19952;-38
2023/04/08 03:30:02;;;;;;;;;;;2.80;99.90;;;;;;5028872;28;20323;-38
2023/04/08 03:32:28;;;;;;;;;;;2.80;99.90;;;;;;5032791;28;20383;-38
2023/04/08 03:34:55;;;;;;;;;;;2.80;99.90;;;;;;5014907;28;20058;-38
2023/04/08 03:37:22;;;;;;;;;;;2.80;99.90;;;;;;5032226;28;20012;-38
2023/04/08 03:39:48;;;;;;;;;;;2.80;99.90;;;;;;5032745;28;20459;-39
2023/04/08 03:42:15;;;;;;;;;;;2.70;99.90;;;;;;5015528;28;20007;-38
2023/04/08 03:44:43;;;;;;;;;;;2.70;99.90;;;;;;5015232;28;19960;-38
2023/04/08 03:47:10;;;;;;;;;;;2.70;99.90;;;;;;5013757;28;19972;-37
2023/04/08 03:49:36;;;;;;;;;;;2.70;99.90;;;;;;5032442;28;19988;-37
2023/04/08 03:52:03;;;;;;;;;;;2.70;99.90;;;;;;5014288;28;19956;-38
2023/04/08 03:54:30;;;;;;;;;;;2.70;99.90;;;;;;5032314;28;20417;-38
2023/04/08 03:56:56;;;;;;;;;;;2.70;99.90;;;;;;5032678;28;19962;-37
2023/04/08 03:59:23;;;;;;;;;;;2.70;99.90;;;;;;5031477;28;19958;-37
2023/04/08 04:01:52;;;;;;;;;;;2.70;99.90;;;;;;5012162;28;20040;-37
2023/04/08 04:04:19;;;;;;;;;;;2.70;99.90;;;;;;5027332;28;19953;-37
2023/04/08 04:06:45;;;;;;;;;;;2.70;99.90;;;;;;5008723;28;20018;-38
2023/04/08 04:09:14;;;;;;;;;;;2.60;99.90;;;;;;5024044;28;20051;-37
2023/04/08 04:11:40;;;;;;;;;;;2.60;99.90;;;;;;5004620;28;19958;-37
2023/04/08 04:14:07;;;;;;;;;;;2.60;99.90;;;;;;5021612;28;20488;-37
2023/04/08 04:16:33;;;;;;;;;;;2.60;99.90;;;;;;5023392;28;20413;-38
2023/04/08 04:19:01;;;;;;;;;;;2.60;99.90;;;;;;5009382;28;20100;-38
2023/04/08 04:21:28;;;;;;;;;;;2.60;99.90;;;;;;5007531;28;20409;-38
2023/04/08 04:23:55;;;;;;;;;;;2.60;99.90;;;;;;5024387;28;20017;-38
2023/04/08 04:26:21;;;;;;;;;;;2.60;99.90;;;;;;5005659;28;21437;-37
2023/04/08 04:28:48;;;;;;;;;;;2.50;99.90;;;;;;5027648;28;19959;-39
2023/04/08 04:31:18;;;;;;;;;;;2.60;99.90;;;;;;5025523;28;20005;-37
2023/04/08 04:33:46;;;;;;;;;;;2.50;99.90;;;;;;5021070;28;20103;-38
2023/04/08 04:36:14;;;;;;;;;;;2.50;99.90;;;;;;5027854;28;20599;-37
2023/04/08 04:38:41;;;;;;;;;;;2.50;99.90;;;;;;5021216;28;20471;-38
2023/04/08 04:41:08;;;;;;;;;;;2.50;99.90;;;;;;5023857;28;19952;-38
2023/04/08 04:43:35;;;;;;;;;;;2.50;99.90;;;;;;5006292;28;19954;-38
2023/04/08 04:46:02;;;;;;;;;;;2.50;99.90;;;;;;5007767;28;20034;-37
2023/04/08 04:48:29;;;;;;;;;;;2.50;99.90;;;;;;5024134;28;19957;-37
2023/04/08 04:50:57;;;;;;;;;;;2.50;99.90;;;;;;5022167;28;20149;-38
2023/04/08 04:53:25;;;;;;;;;;;2.50;99.90;;;;;;5021692;28;20012;-39
2023/04/08 04:55:52;;;;;;;;;;;2.40;99.90;;;;;;5006059;28;19968;-39
2023/04/08 04:58:18;;;;;;;;;;;2.50;99.90;;;;;;5021499;28;20050;-39
2023/04/08 05:00:45;;;;;;;;;;;2.40;99.90;;;;;;5029426;28;19997;-39
2023/04/08 05:03:12;;;;;;;;;;;2.40;99.90;;;;;;5027795;28;19981;-38
2023/04/08 05:05:39;;;;;;;;;;;2.50;99.90;;;;;;5008359;28;20010;-39
2023/04/08 05:08:06;;;;;;;;;;;2.40;99.90;;;;;;5026164;28;20128;-39
2023/04/08 05:10:34;;;;;;;;;;;2.40;99.90;;;;;;5023398;28;20415;-38
2023/04/08 05:13:00;;;;;;;;;;;2.40;99.90;;;;;;5003186;28;19956;-37
2023/04/08 05:15:27;;;;;;;;;;;2.40;99.90;;;;;;5004350;28;20009;-37
2023/04/08 05:17:54;;;;;;;;;;;2.40;99.90;;;;;;5023883;28;20005;-37
2023/04/08 05:20:20;;;;;;;;;;;2.40;99.90;;;;;;5030274;28;19958;-37
2023/04/08 05:22:47;;;;;;;;;;;2.40;99.90;;;;;;5031024;28;19958;-38
2023/04/08 05:25:14;;;;;;;;;;;2.40;99.90;;;;;;5012775;28;19954;-38
2023/04/08 05:27:42;;;;;;;;;;;2.40;99.90;;;;;;5034454;28;19954;-38
2023/04/08 05:30:09;;;;;;;;;;;2.40;99.90;;;;;;5015027;28;20046;-38
2023/04/08 05:32:36;;;;;;;;;;;2.40;99.90;;;;;;5030177;28;19962;-37
2023/04/08 05:35:02;;;;;;;;;;;2.40;99.90;;;;;;5033361;28;19950;-37
2023/04/08 05:37:29;;;;;;;;;;;2.50;99.90;;;;;;5034512;28;20005;-37
2023/04/08 05:39:56;;;;;;;;;;;2.50;99.90;;;;;;5016131;28;19953;-38
2023/04/08 05:42:22;;;;;;;;;;;2.60;99.90;;;;;;5033994;28;19955;-38
2023/04/08 05:44:50;;;;;;;;;;;2.70;99.90;;;;;;5034519;28;19951;-38
2023/04/08 05:47:17;;;;;;;;;;;2.70;99.90;;;;;;5015413;28;20030;-38
2023/04/08 05:49:44;;;;;;;;;;;2.90;99.90;;;;;;5033564;28;20404;-39
2023/04/08 05:52:10;;;;;;;;;;;3.00;99.90;;;;;;5016028;28;20052;-37
2023/04/08 05:54:37;;;;;;;;;;;3.10;99.90;;;;;;5032876;28;19996;-38
2023/04/08 05:57:04;;;;;;;;;;;3.20;99.90;;;;;;5012304;28;20009;-37
2023/04/08 05:59:30;;;;;;;;;;;3.40;99.90;;;;;;5024875;28;19958;-37
2023/04/08 06:01:58;;;;;;;;;;;3.50;99.90;;;;;;5030061;28;20057;-38
2023/04/08 06:04:25;;;;;;;;;;;3.60;99.90;;;;;;5013228;28;20366;-37
2023/04/08 06:06:52;;;;;;;;;;;3.70;99.90;;;;;;5026803;28;20395;-38
2023/04/08 06:09:18;;;;;;;;;;;3.70;99.90;;;;;;5034608;28;20005;-37
2023/04/08 06:11:46;;;;;;;;;;;3.90;99.90;;;;;;5010059;28;20010;-37
2023/04/08 06:14:12;;;;;;;;;;;3.90;99.90;;;;;;5030687;28;19962;-38
2023/04/08 06:16:39;;;;;;;;;;;3.90;99.90;;;;;;5010432;28;20017;-38
2023/04/08 06:19:07;;;;;;;;;;;4.10;99.90;;;;;;5025797;28;20009;-37
2023/04/08 06:21:33;;;;;;;;;;;4.00;99.90;;;;;;5030378;28;20045;-37
2023/04/08 06:24:00;;;;;;;;;;;4.20;99.90;;;;;;5030849;28;19991;-37
2023/04/08 06:26:27;;;;;;;;;;;4.20;99.90;;;;;;5011982;28;19959;-37
2023/04/08 06:28:53;;;;;;;;;;;4.20;99.90;;;;;;5007108;28;19953;-38
2023/04/08 06:31:20;;;;;;;;;;;4.30;99.90;;;;;;5016044;28;20019;-37
2023/04/08 06:33:47;;;;;;;;;;;4.40;99.90;;;;;;5010800;28;19955;-38
2023/04/08 06:36:15;;;;;;;;;;;4.40;99.90;;;;;;5015686;28;19976;-38
2023/04/08 06:38:42;;;;;;;;;;;4.50;99.90;;;;;;5008541;28;20300;-38
2023/04/08 06:41:08;;;;;;;;;;;4.50;99.90;;;;;;5015661;28;20405;-38
2023/04/08 06:43:36;;;;;;;;;;;4.60;99.90;;;;;;5011572;28;20705;-38
2023/04/08 06:46:02;;;;;;;;;;;4.60;99.90;;;;;;5022967;28;19991;-38
2023/04/08 06:48:29;;;;;;;;;;;4.70;99.90;;;;;;5028499;28;19958;-38
2023/04/08 06:50:56;;;;;;;;;;;4.80;99.90;;;;;;5014358;28;19993;-38
2023/04/08 06:53:24;;;;;;;;;;;4.90;99.90;;;;;;5008092;28;20035;-39
2023/04/08 06:55:51;;;;;;;;;;;5.00;99.90;;;;;;5015642;28;20380;-38
2023/04/08 06:58:18;;;;;;;;;;;5.10;99.90;;;;;;5030483;28;20035;-38
2023/04/08 07:00:44;;;;;;;;;;;5.10;99.90;;;;;;5007596;28;19995;-38
2023/04/08 07:03:11;;;;;;;;;;;5.20;99.90;;;;;;5023430;28;20046;-37
2023/04/08 07:05:38;;;;;;;;;;;5.30;99.90;;;;;;5023949;28;19955;-38
2023/04/08 07:08:05;;;;;;;;;;;5.40;99.90;;;;;;5005662;28;19956;-38
2023/04/08 07:10:33;;;;;;;;;;;5.60;99.90;;;;;;5004211;28;20059;-38
2023/04/08 07:13:00;;;;;;;;;;;5.80;99.90;;;;;;5023609;28;19964;-38
2023/04/08 07:15:26;;;;;;;;;;;6.00;99.90;;;;;;5024295;28;20433;-38
2023/04/08 07:17:55;;;;;;;;;;;6.20;99.90;;;;;;5008322;28;19997;-38
2023/04/08 07:20:22;;;;;;;;;;;6.30;99.90;;;;;;5025021;28;20435;-38
2023/04/08 07:22:48;;;;;;;;;;;6.40;99.90;;;;;;5008676;28;19970;-38
2023/04/08 07:25:15;;;;;;;;;;;6.50;99.90;;;;;;5028641;28;19965;-38
2023/04/08 07:27:43;;;;;;;;;;;6.60;99.90;;;;;;5005446;28;19955;-39
2023/04/08 07:30:10;;;;;;;;;;;6.80;99.90;;;;;;5022527;28;20057;-38
2023/04/08 07:32:37;;;;;;;;;;;6.80;99.90;;;;;;5024324;28;20004;-38
2023/04/08 07:35:04;;;;;;;;;;;6.90;99.90;;;;;;5012904;28;20003;-38
2023/04/08 07:37:30;;;;;;;;;;;6.90;99.90;;;;;;5013790;28;20073;-41
2023/04/08 07:39:57;;;;;;;;;;;6.90;99.90;;;;;;5008862;28;19969;-38
2023/04/08 07:42:24;;;;;;;;;;;7.00;99.90;;;;;;5022832;28;19953;-39
2023/04/08 07:44:52;;;;;;;;;;;7.10;99.90;;;;;;5004535;28;19998;-39
2023/04/08 07:47:18;;;;;;;;;;;7.20;99.90;;;;;;5008667;28;20498;-37
2023/04/08 07:49:45;;;;;;;;;;;7.30;99.90;;;;;;5025454;28;20331;-38
2023/04/08 07:52:12;;;;;;;;;;;7.40;99.90;;;;;;5030979;28;19987;-39
2023/04/08 07:54:39;;;;;;;;;;;7.60;99.90;;;;;;5013312;28;20032;-39
2023/04/08 07:57:05;;;;;;;;;;;7.80;99.90;;;;;;5014152;28;19964;-38
2023/04/08 07:59:32;;;;;;;;;;;7.80;99.90;;;;;;5013931;28;19996;-38
2023/04/08 08:02:00;;;;;;;;;;;7.80;99.90;;;;;;5028570;28;20032;-37
2023/04/08 08:04:27;;;;;;;;;;;7.90;99.90;;;;;;5032413;28;19955;-38
2023/04/08 08:06:53;;;;;;;;;;;7.90;99.90;;;;;;5028107;28;19950;-38
2023/04/08 08:09:20;;;;;;;;;;;7.90;99.90;;;;;;5028598;28;20129;-38
2023/04/08 08:11:46;;;;;;;;;;;8.00;99.90;;;;;;5008686;28;19997;-37
2023/04/08 08:14:14;;;;;;;;;;;8.10;99.90;;;;;;5011579;28;19952;-38
2023/04/08 08:16:41;;;;;;;;;;;8.30;99.90;;;;;;5027021;28;19966;-38
2023/04/08 08:19:11;;;;;;;;;;;8.40;99.90;;;;;;5025552;28;20024;-37
2023/04/08 08:21:38;;;;;;;;;;;8.50;99.90;;;;;;5011784;28;20003;-37
2023/04/08 08:24:05;;;;;;;;;;;8.60;99.90;;;;;;5028558;28;19947;-37
2023/04/08 08:26:31;;;;;;;;;;;8.70;99.90;;;;;;5012550;28;19992;-37
2023/04/08 08:28:58;;;;;;;;;;;8.80;99.90;;;;;;5028786;28;19948;-39
2023/04/08 08:31:25;;;;;;;;;;;8.90;99.90;;;;;;5026655;28;19971;-37
2023/04/08 08:33:51;;;;;;;;;;;9.00;99.90;;;;;;5018586;28;20000;-38
2023/04/08 08:36:20;;;;;;;;;;;9.00;99.90;;;;;;5025336;28;19954;-38
2023/04/08 08:38:46;;;;;;;;;;;9.10;99.90;;;;;;5029802;28;20037;-39
2023/04/08 08:41:14;;;;;;;;;;;9.20;99.90;;;;;;5027470;28;20444;-38
2023/04/08 08:43:40;;;;;;;;;;;9.40;99.90;;;;;;5009282;28;19991;-37
2023/04/08 08:46:08;;;;;;;;;;;9.50;99.90;;;;;;5012244;28;20106;-38
2023/04/08 08:48:37;;;;;;;;;;;9.70;99.90;;;;;;5029090;28;19940;-38
2023/04/08 08:51:07;;;;;;;;;;;9.70;99.90;;;;;;5031339;28;20081;-38
2023/04/08 08:53:35;;;;;;;;;;;9.70;99.90;;;;;;5007347;28;20062;-37
2023/04/08 08:56:02;;;;;;;;;;;9.90;99.90;;;;;;5009079;28;19971;-39
2023/04/08 09:00:45;;;;;;;;;;;10.00;99.90;;;;;;4869508;22;1936891;-38
2023/04/08 09:03:19;;;;;;;25.67;20.23;;;10.10;99.90;;;;;;5080339;28;20916;-38
2023/04/08 09:05:48;;;;;;;26.42;19.08;;;10.30;99.90;;;;;;5089225;28;20040;-38
2023/04/08 09:08:25;;;;;;;26.73;17.95;;;10.30;99.90;;;;;;5074028;28;20044;-38
2023/04/08 09:10:52;;;;;;;29.33;19.50;;;10.30;99.90;;;;;;5091598;28;20445;-38
2023/04/08 09:13:19;;;;;;;23.73;17.90;;;10.30;99.90;;;;;;5080855;28;20294;-38
2023/04/08 09:18:39;;;;;;;20.60;16.65;;;10.30;99.90;;;;;;5086751;28;20466;-39
2023/04/08 09:21:07;;;;;;;20.15;16.92;;;10.30;99.90;;;;;;5067582;28;20052;-38
2023/04/08 09:23:41;;;;;;;22.13;17.08;;;10.30;99.90;;;;;;5065320;28;20048;-38
2023/04/08 09:26:09;;;;;;;20.92;17.20;;;10.50;99.90;;;;;;5065996;28;20102;-38
2023/04/08 09:28:35;;;;;;;23.33;16.90;;;10.60;99.90;;;;;;5067285;28;20403;-38
2023/04/08 09:31:21;;;;;;;18.88;16.60;;;10.80;99.90;;;;;;5067230;28;20116;-39
2023/04/08 09:33:50;;;;;;;20.38;17.02;;;10.90;99.90;;;;;;5064362;28;20118;-38
2023/04/08 09:36:17;;;;;;;19.88;16.33;;;11.10;99.90;;;;;;5066304;28;20067;-44
2023/04/08 09:38:44;;;;;;;21.85;17.30;;;11.20;99.90;;;;;;5063564;28;20052;-38
2023/04/08 09:41:13;;;;;;;20.85;16.85;;;11.20;99.90;;;;;;5074895;28;20418;-39
2023/04/08 09:43:42;;;;;;;20.60;16.98;;;11.30;99.90;;;;;;5065779;28;20480;-39
2023/04/08 09:46:11;;;;;;;24.23;16.88;;;11.40;99.90;;;;;;5063556;28;20130;-39
2023/04/08 09:48:40;;;;;;;22.73;16.60;;;11.50;99.90;;;;;;5064550;28;20060;-38
2023/04/08 09:51:09;;;;;;;22.00;16.40;;;11.50;99.90;;;;;;5064535;28;20059;-37
2023/04/08 09:53:38;;;;;;;23.20;15.85;;;11.50;99.90;;;;;;5058665;28;20057;-38
2023/04/08 09:56:07;;;;;;;19.42;15.90;;;11.30;99.90;;;;;;5059677;28;20126;-37
2023/04/08 09:58:38;;;;;;;22.20;16.95;;;11.30;99.90;;;;;;5063462;28;20504;-37
2023/04/08 10:01:05;;;;;;;22.15;16.38;;;11.30;99.90;;;;;;5070281;28;20063;-37
2023/04/08 10:03:34;;;;;;;20.27;16.67;;;11.40;99.90;;;;;;5066015;28;20084;-37
2023/04/08 10:06:02;;;;;;;20.73;16.23;;;11.50;99.90;;;;;;5064785;28;20049;-37
2023/04/08 10:08:31;;;;;;;25.38;17.05;;;11.60;99.90;;;;;;5065985;28;20098;-37
2023/04/08 10:10:58;;;;;;;20.70;15.35;;;11.60;99.90;;;;;;5060336;28;20471;-37
2023/04/08 10:13:27;;;;;;;18.73;15.70;;;11.60;99.90;;;;;;5065158;28;20451;-39
2023/04/08 10:16:07;;;;;;;18.10;14.95;;;11.70;99.90;;;;;;5064388;28;20047;-38
2023/04/08 10:18:36;;;;;;;19.88;15.65;;;11.80;99.90;;;;;;5063571;28;20080;-39
2023/04/08 10:21:03;;;;;;;18.63;15.20;;;11.80;99.90;;;;;;5066184;28;20098;-39
2023/04/08 10:23:58;;;;;;;19.15;15.85;;;11.80;99.90;;;;;;5073671;28;20041;-38
2023/04/08 10:26:33;;;;;;;20.95;16.10;;;12.00;99.90;;;;;;5064029;28;20061;-40
2023/04/08 10:29:30;;;;;;;17.95;15.40;;;12.30;99.90;;;;;;5056107;28;20045;-42
2023/04/08 10:31:57;;;;;;;18.00;14.80;;;12.50;99.90;;;;;;5015603;28;20109;-37
2023/04/08 10:34:25;;;;;;;19.13;15.27;;;12.50;99.90;;;;;;5051441;28;20488;-37
2023/04/08 10:36:53;;;;;;;19.60;15.43;;;12.70;99.90;;;;;;5051244;28;20140;-39
2023/04/08 10:39:21;;;;;;;18.63;15.13;;;12.70;99.90;;;;;;5052696;28;20045;-38
2023/04/08 10:41:48;;;;;;;18.40;15.55;;;12.80;99.90;;;;;;5054410;28;20792;-39
2023/04/08 10:44:16;;;;;;;17.67;15.00;;;12.90;99.90;;;;;;5061328;28;20150;-39
2023/04/08 10:46:43;;;;;;;18.20;14.15;;;12.90;99.90;;;;;;5052274;28;20055;-37
2023/04/08 10:49:10;;;;;;;17.08;14.25;;;13.00;99.90;;;;;;5050711;28;20049;-41
2023/04/08 10:51:36;;;;;;;18.90;14.88;;;13.10;99.90;;;;;;5042946;28;20060;-38
2023/04/08 10:54:07;;;;;;;17.25;15.10;;;13.20;99.90;;;;;;5066053;28;20102;-38
2023/04/08 10:56:35;;;;;;;16.20;14.50;;;13.20;99.90;;;;;;5050986;28;20056;-39
2023/04/08 10:59:02;;;;;;;17.52;14.90;;;13.20;99.90;;;;;;5050297;28;20107;-39
2023/04/08 11:01:37;;;;;;;18.42;13.60;;;13.20;99.90;;;;;;5052456;28;20078;-38
2023/04/08 11:04:11;;;;;;;13.65;12.20;;;13.20;99.90;;;;;;5052375;28;20134;-37
2023/04/08 11:06:37;;;;;;;18.80;13.70;;;13.10;99.90;;;;;;5050689;28;20099;-38
2023/04/08 11:09:04;;;;;;;15.38;13.38;;;13.00;99.90;;;;;;5051256;28;20044;-37
2023/04/08 11:11:31;;;;;;;15.77;13.55;;;12.70;99.90;;;;;;5052503;28;20056;-37
2023/04/08 11:13:59;;;;;;;15.43;13.80;;;12.50;99.90;;;;;;5053356;28;20087;-41
2023/04/08 11:16:26;;;;;;;17.27;15.38;;;12.40;99.90;;;;;;5050519;28;20076;-37
2023/04/08 11:18:54;;;;;;;18.98;14.38;;;12.20;99.90;;;;;;5052250;28;20068;-40
2023/04/08 11:21:22;;;;;;;18.58;13.82;;;12.10;99.90;;;;;;5050133;28;20106;-38
2023/04/08 11:23:49;;;;;;;17.90;14.43;;;12.00;99.90;;;;;;5062921;28;20065;-41
2023/04/08 11:26:16;;;;;;;17.00;13.13;;;11.90;99.90;;;;;;5054575;28;20049;-39
2023/04/08 11:28:43;;;;;;;14.10;12.25;;;11.90;99.90;;;;;;5062492;28;20044;-38
2023/04/08 11:31:12;;;;;;;17.05;12.82;;;12.00;99.90;;;;;;5051550;28;20060;-39
2023/04/08 11:33:41;;;;;;;15.85;11.88;;;12.20;99.90;;;;;;5059605;28;20594;-42
2023/04/08 11:36:08;;;;;;;13.57;11.45;;;12.20;99.90;;;;;;5046572;28;20048;-38
2023/04/08 11:38:35;;;;;;;15.13;10.63;;;12.20;99.90;;;;;;5060285;28;20068;-39
2023/04/08 11:41:02;;;;;;;13.20;10.35;;;12.10;99.90;;;;;;5045893;28;20049;-39
2023/04/08 11:43:28;;;;;;;14.70;11.05;;;12.10;99.90;;;;;;5048493;28;20049;-39
2023/04/08 11:45:55;;;;;;;13.80;10.88;;;12.20;99.90;;;;;;5070589;28;20052;-37
2023/04/08 11:48:23;;;;;;;12.60;10.02;;;12.20;99.90;;;;;;5048388;28;20144;-36
2023/04/08 11:51:02;;;;;;;12.23;9.63;;;12.30;99.90;;;;;;5049220;28;20143;-39
2023/04/08 11:53:29;;;;;;;11.95;9.65;;;12.40;99.90;;;;;;5044627;28;20144;-39
2023/04/08 11:55:56;;;;;;;12.23;9.68;;;12.50;99.90;;;;;;5047117;28;20492;-37
2023/04/08 11:58:23;;;;;;;13.60;10.35;;;12.60;99.90;;;;;;5047585;28;20049;-39
2023/04/08 12:00:50;;;;;;;13.15;10.23;;;12.60;99.90;;;;;;5046888;28;20537;-37
2023/04/08 12:03:16;;;;;;;14.60;10.18;;;12.60;99.90;;;;;;5044391;28;20056;-38
2023/04/08 12:05:45;;;;;;;12.70;10.02;;;12.60;99.90;;;;;;5046660;28;20140;-39
2023/04/08 12:08:12;;;;;;;12.20;9.48;;;12.60;99.90;;;;;;5048493;28;20064;-40
2023/04/08 12:10:38;;;;;;;13.00;9.60;;;12.70;99.90;;;;;;5050416;28;20084;-38
2023/04/08 12:13:05;;;;;;;10.95;9.52;;;12.60;99.90;;;;;;5049863;28;20156;-38
2023/04/08 12:15:32;;;;;;;12.75;10.00;;;12.50;99.90;;;;;;5049862;28;20061;-38
2023/04/08 12:17:59;;;;;;;12.18;9.70;;;12.60;99.90;;;;;;5046970;28;20139;-39
2023/04/08 12:20:26;;;;;;;11.75;9.65;;;12.70;99.90;;;;;;5051117;28;20750;-40
2023/04/08 12:22:54;;;;;;;13.15;9.90;;;12.70;99.90;;;;;;5054789;28;20041;-39
2023/04/08 12:25:21;;;;;;;12.55;10.20;;;12.80;99.90;;;;;;5051108;28;20040;-38
2023/04/08 12:27:48;;;;;;;15.07;10.93;;;12.80;99.90;;;;;;5046994;28;20443;-39
2023/04/08 12:30:15;;;;;;;12.35;9.18;;;12.70;99.90;;;;;;5050325;28;20412;-39
2023/04/08 12:32:44;;;;;;;13.68;9.90;;;12.70;99.90;;;;;;5047476;28;20056;-39
2023/04/08 12:35:11;;;;;;;13.63;10.40;;;12.70;99.90;;;;;;5048359;28;20286;-42
2023/04/08 12:37:38;;;;;;;13.82;10.88;;;12.60;99.90;;;;;;5044049;28;20049;-42
2023/04/08 12:40:08;;;;;;;18.02;12.25;;;12.50;99.90;;;;;;5044816;28;20545;-37
2023/04/08 12:42:34;;;;;;;15.90;12.18;;;12.40;99.90;;;;;;5042041;28;20118;-37
2023/04/08 12:45:01;;;;;;;16.63;11.65;;;12.30;99.90;;;;;;5049255;28;20057;-38
2023/04/08 12:47:28;;;;;;;16.63;12.73;;;12.40;99.90;;;;;;5050333;28;20500;-38
2023/04/08 12:49:55;;;;;;;19.35;13.32;;;12.40;99.90;;;;;;5044203;28;20053;-38
2023/04/08 12:52:23;;;;;;;21.33;14.57;;;12.50;99.90;;;;;;5042906;28;20138;-38
2023/04/08 12:54:49;;;;;;;20.60;15.00;;;12.50;99.90;;;;;;5049857;28;20060;-38
2023/04/08 12:57:17;;;;;;;21.65;15.30;;;12.50;99.90;;;;;;5046826;28;20061;-38
2023/04/08 12:59:44;;;;;;;21.15;16.10;;;12.50;99.90;;;;;;5047599;28;20512;-38
2023/04/08 13:02:11;;;;;;;22.15;16.23;;;12.40;99.90;;;;;;5047543;28;20175;-38
2023/04/08 13:04:38;;;;;;;22.67;16.23;;;12.30;99.90;;;;;;5049678;28;20124;-38
2023/04/08 13:07:06;;;;;;;24.15;17.40;;;12.30;99.90;;;;;;5049681;28;20055;-38
2023/04/08 13:09:33;;;;;;;22.40;15.82;;;12.30;99.90;;;;;;5047315;28;20446;-37
2023/04/08 13:12:00;;;;;;;26.50;16.75;;;12.30;99.90;;;;;;5050660;28;20415;-38
2023/04/08 13:14:29;;;;;;;27.25;17.85;;;12.40;99.90;;;;;;5048412;28;20057;-38
2023/04/08 13:16:56;;;;;;;24.58;17.52;;;12.40;99.90;;;;;;5054338;28;20098;-37
2023/04/08 13:19:23;;;;;;;25.25;17.48;;;12.30;99.90;;;;;;5048889;28;20060;-37
2023/04/08 13:21:49;;;;;;;27.50;18.15;;;12.30;99.90;;;;;;5045937;28;20087;-39
2023/04/08 13:24:17;;;;;;;24.48;17.20;;;12.20;99.90;;;;;;5049549;28;20465;-39
2023/04/08 13:26:43;;;;;;;26.85;17.80;;;12.10;99.90;;;;;;5049352;28;20053;-37
2023/04/08 13:29:10;;;;;;;29.02;17.95;;;12.10;99.90;;;;;;5045849;28;20149;-37
2023/04/08 13:31:38;;;;;;;30.52;19.77;;;12.00;99.90;;;;;;5040274;28;20076;-39
2023/04/08 13:34:05;;;;;;;24.75;18.33;;;12.00;99.90;;;;;;5049066;28;20049;-38
2023/04/08 13:36:32;;;;;;;27.20;18.60;;;12.00;99.90;;;;;;5045814;28;20482;-38
2023/04/08 13:38:59;;;;;;;28.50;19.30;;;12.00;99.90;;;;;;5042483;28;20191;-37
2023/04/08 13:41:26;;;;;;;25.83;18.17;;;12.00;99.90;;;;;;5051826;28;20047;-38
2023/04/08 13:43:53;;;;;;;29.58;20.10;;;12.00;99.90;;;;;;5047756;28;20049;-38
2023/04/08 13:46:20;;;;;;;32.83;20.80;;;12.00;99.90;;;;;;5048259;28;20052;-39
2023/04/08 13:48:48;;;;;;;29.60;20.27;;;12.00;99.90;;;;;;5057417;28;20048;-38
2023/04/08 13:51:15;;;;;;;32.88;21.27;;;11.90;99.90;;;;;;5053158;28;20568;-37